Time;durP1;ratioP1;P1;durP2;ratioP2;P2;SDS_P1;SDS_P2;PMS_P1;PMS_P2;Temp;Humidity;BMP_temperature;BMP_pressure;BME280_temperature;BME280_humidity;BME280_pressure;Samples;Min_cycle;Max_cycle;Signal;HPM_P1;HPM_P2
2022/08/02 00:00:09;;;;;;;3.78;2.20;;;;;;;19.21;49.26;101754.53;5090418;28;20078;-75
2022/08/02 00:02:35;;;;;;;4.05;2.30;;;;;;;19.20;48.82;101757.41;5092207;28;20047;-75
2022/08/02 00:05:04;;;;;;;4.22;2.30;;;;;;;19.16;49.19;101765.00;5092614;28;20043;-76
2022/08/02 00:07:31;;;;;;;4.03;2.45;;;;;;;19.16;49.14;101765.00;5092445;28;20119;-77
2022/08/02 00:10:05;;;;;;;7.47;2.40;;;;;;;19.16;49.39;101766.84;5092193;27;20498;-75
2022/08/02 00:12:32;;;;;;;5.25;2.63;;;;;;;19.14;49.36;101758.81;5092099;28;20119;-76
2022/08/02 00:15:00;;;;;;;6.18;4.22;;;;;;;19.14;48.96;101757.97;5091809;28;20036;-75
2022/08/02 00:17:27;;;;;;;9.38;5.82;;;;;;;19.14;49.59;101763.41;5090817;28;20048;-75
2022/08/02 00:19:53;;;;;;;7.55;4.00;;;;;;;19.15;49.62;101759.69;5091024;28;20046;-76
2022/08/02 00:22:20;;;;;;;4.50;3.05;;;;;;;19.14;49.64;101758.81;5090810;28;20080;-75
2022/08/02 00:24:48;;;;;;;5.05;2.40;;;;;;;19.14;49.24;101764.28;5092213;28;20044;-76
2022/08/02 00:27:14;;;;;;;3.17;2.30;;;;;;;19.13;49.47;101764.41;5090937;28;20051;-77
2022/08/02 00:29:41;;;;;;;3.92;2.17;;;;;;;19.11;49.23;101763.69;5090507;28;20044;-76
2022/08/02 00:32:21;;;;;;;3.63;2.10;;;;;;;19.09;49.09;101772.00;5090562;28;20051;-76
2022/08/02 00:34:52;;;;;;;4.07;1.95;;;;;;;19.08;49.32;101769.44;5090931;28;20041;-75
2022/08/02 00:37:18;;;;;;;3.97;2.20;;;;;;;19.09;49.27;101765.69;5090242;28;20427;-76
2022/08/02 00:39:45;;;;;;;7.55;2.08;;;;;;;19.10;49.24;101765.56;5091853;28;20084;-75
2022/08/02 00:42:15;;;;;;;3.25;1.85;;;;;;;19.09;49.13;101755.66;5073927;28;20383;-75
2022/08/02 00:44:46;;;;;;;3.17;1.85;;;;;;;19.09;49.40;101760.25;5090711;28;20052;-75
2022/08/02 00:47:12;;;;;;;4.68;1.95;;;;;;;19.09;49.03;101762.97;5091845;28;20070;-75
2022/08/02 00:49:46;;;;;;;2.97;2.00;;;;;;;19.08;48.91;101763.97;5090751;28;20063;-75
2022/08/02 00:52:12;;;;;;;2.03;1.83;;;;;;;19.07;49.35;101759.53;5090778;28;20140;-75
2022/08/02 00:54:40;;;;;;;2.45;1.80;;;;;;;19.07;49.05;101757.69;5095217;28;20367;-75
2022/08/02 00:57:07;;;;;;;2.97;1.80;;;;;;;19.07;49.08;101751.38;5093963;28;20062;-75
2022/08/02 00:59:34;;;;;;;2.75;2.10;;;;;;;19.08;48.95;101745.78;5095343;28;20050;-75
2022/08/02 01:02:00;;;;;;;3.55;2.40;;;;;;;19.10;49.40;101740.19;5093811;28;20044;-76
2022/08/02 01:04:29;;;;;;;2.90;1.83;;;;;;;19.11;49.28;101748.22;5095454;28;20048;-76
2022/08/02 01:07:03;;;;;;;3.25;1.98;;;;;;;19.11;49.41;101747.34;5094848;28;20059;-76
2022/08/02 01:09:39;;;;;;;5.90;2.25;;;;;;;19.08;48.85;101740.34;5094889;27;20448;-77
2022/08/02 01:12:06;;;;;;;2.88;1.77;;;;;;;19.07;49.26;101740.47;5093444;28;20066;-76
2022/08/02 01:14:33;;;;;;;3.03;1.92;;;;;;;19.05;48.92;101740.63;5093829;28;20087;-76
2022/08/02 01:17:11;;;;;;;3.20;2.00;;;;;;;19.02;49.34;101732.75;5095014;28;20044;-76
2022/08/02 01:20:04;;;;;;;6.22;2.00;;;;;;;19.01;48.93;101729.16;5093903;28;20055;-75
2022/08/02 01:22:58;;;;;;;5.72;2.47;;;;;;;19.01;49.14;101725.56;5093344;28;20040;-75
2022/08/02 01:25:38;;;;;;;3.15;2.22;;;;;;;19.00;49.17;101723.84;5093810;28;20036;-75
2022/08/02 01:28:20;;;;;;;3.28;2.20;;;;;;;18.98;48.98;101729.44;5094846;28;20126;-76
2022/08/02 01:30:53;;;;;;;4.05;2.20;;;;;;;18.97;48.97;101729.59;5094575;28;20036;-77
2022/08/02 01:33:23;;;;;;;4.25;2.35;;;;;;;18.96;49.42;101736.88;5094792;28;20054;-75
2022/08/02 01:35:54;;;;;;;3.85;2.35;;;;;;;18.96;49.35;101728.72;5093252;28;20043;-76
2022/08/02 01:38:46;;;;;;;7.25;3.10;;;;;;;18.97;49.62;101733.16;5093361;28;20038;-76
2022/08/02 01:41:17;;;;;;;6.85;3.28;;;;;;;18.98;49.55;101732.16;5093495;28;20068;-74
2022/08/02 01:43:51;;;;;;;2.65;2.30;;;;;;;18.99;49.13;101724.84;5094254;28;20516;-77
2022/08/02 01:46:19;;;;;;;3.65;2.15;;;;;;;18.97;49.52;101721.41;5094211;28;20048;-77
2022/08/02 01:48:48;;;;;;;4.18;2.40;;;;;;;18.96;49.36;101726.00;5097324;28;20024;-76
2022/08/02 01:51:17;;;;;;;4.70;2.35;;;;;;;18.96;49.65;101720.56;5105847;28;20051;-77
2022/08/02 01:53:48;;;;;;;4.63;2.65;;;;;;;18.97;49.27;101716.84;5094068;28;20071;-76
2022/08/02 01:56:18;;;;;;;4.70;2.67;;;;;;;18.97;49.64;101714.13;5093995;28;20044;-76
2022/08/02 01:58:46;;;;;;;6.10;2.55;;;;;;;18.98;49.29;101713.09;5094082;28;20040;-77
2022/08/02 02:01:14;;;;;;;6.47;2.40;;;;;;;19.00;49.50;101707.53;5094113;28;20044;-76
2022/08/02 02:03:47;;;;;;;3.47;2.85;;;;;;;18.99;49.11;101714.81;5092808;28;20036;-78
2022/08/02 02:06:15;;;;;;;4.85;3.22;;;;;;;18.99;49.42;101706.66;5093736;28;20553;-76
2022/08/02 02:08:43;;;;;;;6.43;2.80;;;;;;;18.98;49.24;101707.66;5093541;28;20101;-78
2022/08/02 02:11:10;;;;;;;5.45;2.67;;;;;;;18.98;49.55;101701.34;5092313;28;20135;-77
2022/08/02 02:14:02;;;;;;;7.10;2.63;;;;;;;18.97;49.37;101699.63;5092351;28;20036;-77
2022/08/02 02:16:31;;;;;;;4.00;2.65;;;;;;;18.96;49.57;101695.19;5092812;28;20182;-77
2022/08/02 02:19:02;;;;;;;5.20;2.85;;;;;;;18.93;49.59;101696.34;5093224;28;20048;-75
2022/08/02 02:21:28;;;;;;;3.67;2.42;;;;;;;18.92;49.43;101691.91;5093352;28;20119;-77
2022/08/02 02:24:02;;;;;;;5.60;3.05;;;;;;;18.92;49.72;101694.63;5091676;28;20456;-77
2022/08/02 02:26:30;;;;;;;4.47;2.40;;;;;;;18.91;49.51;101695.63;5073635;28;20048;-77
2022/08/02 02:29:01;;;;;;;4.25;2.53;;;;;;;18.91;49.65;101690.19;5093600;28;20138;-77
2022/08/02 02:31:41;;;;;;;5.13;2.50;;;;;;;18.91;49.52;101684.75;5092264;28;20052;-78
2022/08/02 02:34:29;;;;;;;4.53;2.70;;;;;;;18.92;49.55;101685.59;5093519;28;20044;-77
2022/08/02 02:37:00;;;;;;;8.48;2.78;;;;;;;18.94;49.56;101681.72;5092412;28;20072;-76
2022/08/02 02:39:27;;;;;;;5.95;3.05;;;;;;;18.95;49.78;101675.28;5091910;28;20048;-76
2022/08/02 02:41:57;;;;;;;3.75;2.67;;;;;;;18.97;49.77;101684.16;5091479;28;20062;-76
2022/08/02 02:44:25;;;;;;;6.43;2.80;;;;;;;18.99;49.58;101679.44;5091717;28;20052;-76
2022/08/02 02:46:53;;;;;;;3.55;2.63;;;;;;;19.01;49.72;101680.16;5091710;28;20044;-76
2022/08/02 02:49:21;;;;;;;4.55;2.80;;;;;;;19.04;49.98;101684.44;5091425;28;20118;-76
2022/08/02 02:51:49;;;;;;;4.75;2.70;;;;;;;19.03;50.00;101672.69;5091450;28;20047;-76
2022/08/02 02:54:19;;;;;;;4.70;2.67;;;;;;;19.04;50.36;101674.41;5091760;28;20062;-75
2022/08/02 02:57:01;;;;;;;6.15;3.08;;;;;;;19.04;49.80;101671.69;5092888;27;20048;-76
2022/08/02 02:59:28;;;;;;;4.85;2.58;;;;;;;19.02;49.77;101679.16;5091845;28;20069;-76
2022/08/02 03:01:55;;;;;;;5.68;2.80;;;;;;;19.00;49.78;101670.28;5092681;28;20054;-76
2022/08/02 03:04:27;;;;;;;5.20;2.90;;;;;;;18.97;50.38;101665.09;5091729;28;20139;-76
2022/08/02 03:07:15;;;;;;;3.67;2.55;;;;;;;18.97;50.01;101670.56;5091548;28;20044;-76
2022/08/02 03:09:42;;;;;;;4.88;2.58;;;;;;;18.97;50.42;101662.38;5090780;28;20036;-76
2022/08/02 03:12:09;;;;;;;8.20;2.90;;;;;;;18.95;49.95;101667.13;5092268;28;20047;-76
2022/08/02 03:15:06;;;;;;;3.75;2.90;;;;;;;18.94;50.41;101662.69;5092013;28;20501;-76
2022/08/02 03:17:38;;;;;;;4.40;2.88;;;;;;;18.94;49.98;101657.22;5092567;28;20120;-76
2022/08/02 03:20:13;;;;;;;4.60;3.00;;;;;;;18.92;50.45;101659.25;5092629;28;20413;-74
2022/08/02 03:22:41;;;;;;;6.43;3.25;;;;;;;18.93;50.05;101649.22;5091279;28;20517;-74
2022/08/02 03:25:09;;;;;;;5.75;3.53;;;;;;;18.92;50.07;101658.38;5091004;28;20109;-74
2022/08/02 03:27:36;;;;;;;7.32;3.10;;;;;;;18.90;50.21;101655.81;5074277;28;20414;-74
2022/08/02 03:30:06;;;;;;;7.28;3.03;;;;;;;18.89;50.25;101654.09;5090985;28;20044;-74
2022/08/02 03:32:34;;;;;;;6.30;3.30;;;;;;;18.86;50.40;101657.09;5090796;28;20054;-74
2022/08/02 03:35:08;;;;;;;7.07;3.10;;;;;;;18.85;50.55;101660.81;5092421;28;20048;-75
2022/08/02 03:37:36;;;;;;;7.05;3.35;;;;;;;18.85;50.61;101668.13;5089736;28;20593;-74
2022/08/02 03:40:07;;;;;;;4.15;3.00;;;;;;;18.83;50.10;101665.53;5092230;28;20450;-74
2022/08/02 03:42:34;;;;;;;4.78;3.25;;;;;;;18.82;50.35;101658.38;5092286;28;20040;-75
2022/08/02 03:45:03;;;;;;;4.53;2.85;;;;;;;18.82;50.28;101652.94;5092214;28;20119;-76
2022/08/02 03:47:36;;;;;;;4.15;3.45;;;;;;;18.80;50.69;101649.50;5092039;28;20443;-77
2022/08/02 03:50:04;;;;;;;6.05;3.10;;;;;;;18.79;50.67;101649.63;5090610;28;20040;-77
2022/08/02 03:52:32;;;;;;;4.22;2.83;;;;;;;18.78;50.63;101640.63;5091440;28;20170;-75
2022/08/02 03:54:59;;;;;;;5.85;3.28;;;;;;;18.77;50.84;101643.47;5090707;28;20078;-76
2022/08/02 03:57:25;;;;;;;4.93;3.20;;;;;;;18.77;50.94;101647.06;5092160;28;20558;-75
2022/08/02 03:59:52;;;;;;;4.18;3.20;;;;;;;18.76;50.60;101647.19;5091751;27;20058;-76
2022/08/02 04:02:19;;;;;;;5.25;3.60;;;;;;;18.76;50.93;101644.47;5091766;28;20139;-76
2022/08/02 04:04:47;;;;;;;4.47;3.35;;;;;;;18.77;50.85;101655.22;5092050;28;20042;-76
2022/08/02 04:07:13;;;;;;;5.55;3.47;;;;;;;18.78;51.10;101650.63;5091752;28;20142;-74
2022/08/02 04:10:00;;;;;;;7.10;3.40;;;;;;;18.79;50.96;101647.78;5091515;28;20052;-74
2022/08/02 04:12:26;;;;;;;7.93;4.03;;;;;;;18.80;51.18;101649.50;5090373;28;20402;-74
2022/08/02 04:14:53;;;;;;;5.63;3.35;;;;;;;18.82;51.09;101655.66;5091838;28;20040;-74
2022/08/02 04:17:22;;;;;;;5.47;3.47;;;;;;;18.84;51.15;101655.50;5091430;27;20048;-74
2022/08/02 04:19:53;;;;;;;5.35;3.33;;;;;;;18.86;51.28;101651.66;5090716;28;20052;-75
2022/08/02 04:22:38;;;;;;;4.20;3.33;;;;;;;18.88;51.40;101649.63;5091541;28;20074;-74
2022/08/02 04:25:07;;;;;;;7.50;3.28;;;;;;;18.91;51.50;101651.22;5073757;28;20050;-75
2022/08/02 04:27:43;;;;;;;5.65;3.22;;;;;;;18.91;51.38;101652.06;5094336;28;20486;-75
2022/08/02 04:30:31;;;;;;;4.90;3.28;;;;;;;18.94;51.39;101657.22;5095572;28;20468;-75
2022/08/02 04:32:59;;;;;;;7.75;3.90;;;;;;;18.94;51.60;101651.78;5094023;28;20401;-76
2022/08/02 04:35:26;;;;;;;3.85;2.95;;;;;;;18.95;51.20;101648.06;5093495;28;20059;-76
2022/08/02 04:37:54;;;;;;;5.80;3.50;;;;;;;18.98;51.37;101649.63;5095090;28;20036;-76
2022/08/02 04:40:37;;;;;;;4.68;3.58;;;;;;;19.00;51.25;101656.66;5095312;28;20040;-76
2022/08/02 04:43:04;;;;;;;8.05;3.80;;;;;;;19.02;51.28;101651.94;5094905;28;20393;-76
2022/08/02 04:45:31;;;;;;;6.60;3.60;;;;;;;19.07;51.22;101658.81;5094186;28;20048;-76
2022/08/02 04:47:58;;;;;;;6.43;3.45;;;;;;;19.10;51.13;101662.09;5095215;28;20408;-76
2022/08/02 04:50:31;;;;;;;5.28;3.70;;;;;;;19.14;51.67;101657.22;5095460;28;20551;-76
2022/08/02 04:52:59;;;;;;;6.90;3.58;;;;;;;19.18;51.66;101661.38;5094807;28;20044;-76
2022/08/02 04:55:27;;;;;;;5.43;3.53;;;;;;;19.21;51.37;101655.63;5094407;28;20036;-76
2022/08/02 04:57:56;;;;;;;7.05;3.58;;;;;;;19.23;51.37;101662.66;5095054;28;20489;-77
2022/08/02 05:00:24;;;;;;;5.28;3.58;;;;;;;19.25;51.42;101655.19;5092757;28;20383;-76
2022/08/02 05:02:59;;;;;;;6.38;3.40;;;;;;;19.28;51.39;101648.59;5091824;28;20048;-77
2022/08/02 05:05:26;;;;;;;6.00;4.00;;;;;;;19.29;51.20;101643.00;5092505;28;20040;-75
2022/08/02 05:07:53;;;;;;;8.00;3.97;;;;;;;19.31;51.34;101654.63;5094689;28;20114;-76
2022/08/02 05:10:20;;;;;;;5.80;3.88;;;;;;;19.33;51.28;101649.06;5094564;28;20139;-76
2022/08/02 05:15:17;;;;;;;5.85;3.97;;;;;;;19.36;51.35;101648.75;5094585;28;20078;-75
2022/08/02 05:17:46;;;;;;;7.47;4.57;;;;;;;19.38;51.66;101644.03;5094243;28;20044;-75
2022/08/02 05:20:16;;;;;;;5.28;4.07;;;;;;;19.39;51.42;101643.00;5092970;28;20508;-76
2022/08/02 05:22:43;;;;;;;6.55;3.97;;;;;;;19.39;51.73;101643.00;5077011;28;20122;-76
2022/08/02 05:25:17;;;;;;;7.13;4.50;;;;;;;19.40;51.64;101641.16;5094916;28;20097;-77
2022/08/02 05:27:44;;;;;;;6.35;5.13;;;;;;;19.40;51.56;101641.16;5094331;28;20046;-76
2022/08/02 05:30:11;;;;;;;7.63;4.60;;;;;;;19.39;51.37;101634.84;5092554;28;20040;-76
2022/08/02 05:32:53;;;;;;;10.65;5.30;;;;;;;19.40;51.74;101635.69;5092303;28;20044;-77
2022/08/02 05:35:21;;;;;;;9.98;4.97;;;;;;;19.42;51.90;101634.56;5094185;28;20382;-76
2022/08/02 05:37:49;;;;;;;7.85;5.53;;;;;;;19.45;51.80;101625.22;5093124;28;20484;-77
2022/08/02 05:40:17;;;;;;;11.13;5.10;;;;;;;19.46;52.10;101632.38;5093631;28;20486;-79
2022/08/02 05:42:55;;;;;;;8.18;5.38;;;;;;;19.48;52.04;101631.22;5093725;28;20154;-79
2022/08/02 05:45:22;;;;;;;7.63;5.38;;;;;;;19.53;51.80;101636.28;5092254;28;20561;-79
2022/08/02 05:47:49;;;;;;;10.25;5.20;;;;;;;19.56;52.01;101630.53;5093935;28;20044;-79
2022/08/02 05:50:16;;;;;;;8.27;5.65;;;;;;;19.61;52.03;101631.81;5092200;28;20044;-79
2022/08/02 05:53:10;;;;;;;8.88;6.50;;;;;;;19.66;52.50;101631.34;5093321;28;20439;-79
2022/08/02 05:56:08;;;;;;;11.43;6.30;;;;;;;19.72;52.40;101627.16;5093664;28;20036;-78
2022/08/02 05:58:55;;;;;;;9.48;5.93;;;;;;;19.80;52.60;101628.16;5093388;28;20040;-78
2022/08/02 06:01:38;;;;;;;12.57;6.97;;;;;;;19.90;52.61;101622.66;5091902;28;20438;-78
2022/08/02 06:04:07;;;;;;;13.55;7.15;;;;;;;19.99;52.88;101632.66;5093338;27;20056;-79
2022/08/02 06:06:36;;;;;;;10.40;6.65;;;;;;;20.08;52.93;101629.03;5093114;28;20122;-80
2022/08/02 06:09:14;;;;;;;11.57;7.13;;;;;;;20.18;53.46;101629.00;5091729;28;20051;-78
2022/08/02 06:11:44;;;;;;;10.73;8.15;;;;;;;20.31;53.53;101633.06;5091599;28;20044;-77
2022/08/02 06:14:32;;;;;;;12.32;10.20;;;;;;;20.47;53.74;101646.06;5092483;28;20116;-77
2022/08/02 06:17:03;;;;;;;14.40;9.52;;;;;;;20.65;53.49;101646.06;5092854;28;20060;-77
2022/08/02 06:19:31;;;;;;;11.10;8.38;;;;;;;20.82;53.54;101649.84;5094183;28;20042;-76
2022/08/02 06:22:18;;;;;;;12.15;7.75;;;;;;;20.98;53.92;101647.28;5094385;28;20047;-76
2022/08/02 06:25:06;;;;;;;10.48;8.38;;;;;;;21.19;53.78;101655.13;5094583;28;20032;-77
2022/08/02 06:27:52;;;;;;;12.10;8.20;;;;;;;21.37;53.80;101644.19;5092772;28;20044;-75
2022/08/02 06:30:19;;;;;;;11.48;8.75;;;;;;;21.49;53.60;101645.66;5093998;28;20127;-78
2022/08/02 06:32:53;;;;;;;15.88;10.90;;;;;;;21.66;54.17;101628.38;5094060;28;20040;-81
2022/08/02 06:35:20;;;;;;;15.05;12.90;;;;;;;21.86;53.48;101627.09;5093108;28;20046;-81
2022/08/02 06:37:51;;;;;;;14.15;11.15;;;;;;;22.04;53.72;101615.25;5092972;28;20046;-77
2022/08/02 06:40:42;;;;;;;15.52;10.80;;;;;;;22.28;53.58;101614.47;5094465;28;20036;-79
2022/08/02 06:43:19;;;;;;;10.88;8.50;;;;;;;22.52;53.71;101622.78;5092468;28;20482;-79
2022/08/02 06:45:45;;;;;;;12.93;7.63;;;;;;;22.73;53.46;101619.53;5092092;28;20119;-78
2022/08/02 06:48:12;;;;;;;11.90;7.68;;;;;;;22.90;53.19;101617.72;5093636;28;20036;-80
2022/08/02 06:50:40;;;;;;;9.95;7.10;;;;;;;23.06;53.13;101615.84;5093619;28;20444;-80
2022/08/02 06:53:12;;;;;;;9.35;6.90;;;;;;;23.21;52.99;101617.91;5092311;28;20063;-79
2022/08/02 06:55:38;;;;;;;10.75;7.60;;;;;;;23.33;52.72;101611.88;5100265;27;20139;-79
2022/08/02 06:58:10;;;;;;;8.43;6.95;;;;;;;23.48;52.77;101614.78;5112185;28;20039;-79
2022/08/02 07:00:37;;;;;;;12.23;7.65;;;;;;;23.60;52.47;101615.28;5092202;28;20102;-79
2022/08/02 07:03:08;;;;;;;13.10;8.20;;;;;;;23.71;52.69;101607.53;5093326;28;20068;-79
2022/08/02 07:05:35;;;;;;;10.35;7.53;;;;;;;23.82;52.55;101614.56;5093180;28;20040;-77
2022/08/02 07:08:02;;;;;;;12.13;8.07;;;;;;;23.92;52.32;101622.59;5092435;28;20042;-76
2022/08/02 07:10:29;;;;;;;9.15;8.00;;;;;;;24.03;52.35;101616.72;5092999;28;20036;-76
2022/08/02 07:12:57;;;;;;;13.80;8.52;;;;;;;24.16;52.11;101621.63;5093078;28;20040;-77
2022/08/02 07:15:25;;;;;;;12.07;7.97;;;;;;;24.29;52.22;101611.81;5090274;28;20036;-76
2022/08/02 07:17:52;;;;;;;10.38;7.72;;;;;;;24.43;51.88;101623.06;5090546;28;20067;-77
2022/08/02 07:20:20;;;;;;;11.23;8.20;;;;;;;24.54;51.28;101626.28;5091250;28;20394;-77
2022/08/02 07:22:50;;;;;;;13.82;8.48;;;;;;;24.63;51.39;101625.19;5090204;28;20040;-77
2022/08/02 07:25:17;;;;;;;13.55;8.52;;;;;;;24.73;51.49;101619.44;5090228;28;20054;-77
2022/08/02 07:27:43;;;;;;;11.90;7.88;;;;;;;24.88;51.70;101616.75;5090367;28;20036;-78
2022/08/02 07:30:11;;;;;;;10.18;7.32;;;;;;;25.03;51.33;101620.44;5090188;28;20420;-77
2022/08/02 07:32:38;;;;;;;9.60;7.68;;;;;;;25.22;51.06;101625.41;5072972;28;20490;-77
2022/08/02 07:35:06;;;;;;;9.65;8.25;;;;;;;25.39;51.13;101608.78;5090008;28;20054;-77
2022/08/02 07:37:34;;;;;;;9.40;7.72;;;;;;;25.54;50.70;101616.03;5090249;28;20108;-76
2022/08/02 07:40:22;;;;;;;9.23;7.95;;;;;;;25.67;50.65;101617.28;5091207;27;20052;-76
2022/08/02 07:42:52;;;;;;;10.80;8.23;;;;;;;25.75;49.85;101607.03;5089357;28;20043;-80
2022/08/02 07:45:26;;;;;;;9.95;7.65;;;;;;;25.80;49.82;101604.56;5075666;28;20432;-79
2022/08/02 07:47:53;;;;;;;8.48;7.00;;;;;;;25.88;49.71;101601.72;5091259;28;20112;-78
2022/08/02 07:50:20;;;;;;;8.90;7.68;;;;;;;25.96;49.58;101595.25;5092302;28;20040;-77
2022/08/02 07:55:24;;;;;;;9.50;6.10;;;;;;;26.11;49.59;101600.78;5092160;27;20525;-76
2022/08/02 07:58:05;;;;;;;7.82;6.63;;;;;;;26.26;49.38;101599.69;5092879;28;20043;-76
2022/08/02 08:00:37;;;;;;;8.43;6.55;;;;;;;26.37;49.21;101592.88;5091674;28;20140;-76
2022/08/02 08:03:07;;;;;;;10.18;6.80;;;;;;;26.47;48.78;101595.31;5096001;28;20151;-75
2022/08/02 08:05:35;;;;;;;7.85;5.93;;;;;;;26.55;48.92;101603.44;5095611;28;20042;-76
2022/08/02 08:08:01;;;;;;;11.55;6.43;;;;;;;26.68;48.68;101597.22;5096397;28;20517;-76
2022/08/02 08:10:28;;;;;;;8.70;5.50;;;;;;;26.81;48.03;101602.88;5096070;28;20052;-75
2022/08/02 08:12:59;;;;;;;9.43;5.97;;;;;;;26.95;47.88;101590.94;5095006;28;20044;-76
2022/08/02 08:15:25;;;;;;;6.70;5.15;;;;;;;27.06;48.26;101601.47;5078252;28;20131;-76
2022/08/02 08:17:52;;;;;;;6.85;5.40;;;;;;;27.15;47.61;101597.50;5096306;28;20118;-75
2022/08/02 08:20:18;;;;;;;5.72;4.32;;;;;;;27.28;47.53;101590.38;5096269;28;20058;-75
2022/08/02 08:22:52;;;;;;;7.43;5.78;;;;;;;27.46;47.09;101591.59;5094480;28;20044;-74
2022/08/02 08:25:19;;;;;;;12.63;5.03;;;;;;;27.60;47.03;101589.78;5093377;28;20406;-76
2022/08/02 08:27:51;;;;;;;7.70;4.80;;;;;;;27.74;46.56;101588.00;5093387;28;20052;-75
2022/08/02 08:30:20;;;;;;;5.72;4.63;;;;;;;27.83;46.71;101586.75;5093137;28;20127;-75
2022/08/02 08:32:54;;;;;;;6.30;4.18;;;;;;;27.99;46.42;101588.31;5094330;28;20040;-75
2022/08/02 08:35:21;;;;;;;4.82;4.32;;;;;;;28.09;46.01;101586.03;5076629;28;20129;-76
2022/08/02 08:37:48;;;;;;;5.50;3.70;;;;;;;28.15;45.62;101587.97;5093112;28;20097;-76
2022/08/02 08:40:14;;;;;;;6.72;4.28;;;;;;;28.22;45.85;101582.47;5093362;28;20055;-75
2022/08/02 08:45:18;;;;;;;4.00;3.28;;;;;;;28.27;45.19;101578.09;5094395;27;20063;-75
2022/08/02 08:48:02;;;;;;;4.43;3.42;;;;;;;28.32;44.78;101583.84;5094515;28;20123;-75
2022/08/02 08:50:34;;;;;;;5.28;2.80;;;;;;;28.37;44.44;101577.69;5093000;28;20083;-74
2022/08/02 08:53:08;;;;;;;8.07;3.45;;;;;;;28.39;44.43;101581.09;5093421;28;20113;-75
2022/08/02 08:55:39;;;;;;;4.32;2.80;;;;;;;28.51;44.58;101575.81;5090241;28;20139;-74
2022/08/02 08:58:06;;;;;;;3.60;2.60;;;;;;;28.67;44.69;101584.56;5073714;28;20060;-73
2022/08/02 09:00:34;;;;;;;5.43;2.70;;;;;;;28.82;44.06;101575.22;5094956;28;20062;-74
2022/08/02 09:03:07;;;;;;;3.35;2.70;;;;;;;28.91;43.76;101583.13;5077507;28;20433;-79
2022/08/02 09:05:35;;;;;;;4.22;2.85;;;;;;;29.04;43.88;101585.06;5095816;28;20044;-77
2022/08/02 09:08:03;;;;;;;3.28;2.25;;;;;;;29.20;43.91;101589.31;5094635;28;20048;-78
2022/08/02 09:10:43;;;;;;;4.15;2.75;;;;;;;29.34;43.61;101582.72;5095137;28;20038;-78
2022/08/02 09:13:11;;;;;;;9.15;2.90;;;;;;;29.42;42.81;101588.03;5061374;28;20386;-77
2022/08/02 09:16:03;;;;;;;5.93;2.67;;;;;;;29.44;42.90;101576.78;5075385;28;20513;-78
2022/08/02 09:18:44;;;;;;;5.03;2.42;;;;;;;29.48;43.25;101580.81;5080581;28;20032;-79
2022/08/02 09:21:14;;;;;;;4.22;2.63;;;;;;;29.53;42.75;101583.78;5094310;28;20109;-78
2022/08/02 09:23:44;;;;;;;3.20;2.90;;;;;;;29.60;42.59;101579.94;5093558;27;20040;-77
2022/08/02 09:26:14;;;;;;;3.28;2.55;;;;;;;29.59;42.50;101575.47;5077656;28;20068;-78
2022/08/02 09:28:45;;;;;;;3.17;2.50;;;;;;;29.59;42.22;101578.22;5095326;28;20042;-77
2022/08/02 09:31:20;;;;;;;4.50;2.22;;;;;;;29.61;42.61;101584.41;5083040;28;20040;-77
2022/08/02 09:33:54;;;;;;;8.38;3.75;;;;;;;29.65;42.35;101579.28;5095104;28;20036;-77
2022/08/02 09:36:21;;;;;;;10.20;3.03;;;;;;;29.67;42.18;101586.28;5095020;28;20056;-77
2022/08/02 09:39:10;;;;;;;5.32;2.70;;;;;;;29.70;42.28;101571.16;5094914;28;20040;-77
2022/08/02 09:41:40;;;;;;;3.60;2.70;;;;;;;29.81;42.05;101586.28;5092598;28;20077;-78
2022/08/02 09:44:11;;;;;;;3.00;2.08;;;;;;;29.83;41.70;101579.47;5095030;28;20509;-78
2022/08/02 09:46:43;;;;;;;8.13;2.25;;;;;;;29.82;41.82;101582.44;5095046;28;20052;-78
2022/08/02 09:49:12;;;;;;;5.07;2.17;;;;;;;29.93;41.94;101570.69;5094946;28;20044;-80
2022/08/02 09:51:49;;;;;;;10.63;2.88;;;;;;;30.04;41.76;101575.56;5089803;28;20387;-80
2022/08/02 09:54:19;;;;;;;4.28;2.13;;;;;;;30.21;41.41;101576.78;5094431;28;20044;-80
2022/08/02 09:56:51;;;;;;;2.42;1.70;;;;;;;30.35;40.78;101572.84;5094280;27;20482;-80
2022/08/02 09:59:20;;;;;;;3.72;2.15;;;;;;;30.53;41.10;101571.28;5094295;28;20459;-80
2022/08/02 10:01:48;;;;;;;3.00;2.58;;;;;;;30.71;40.48;101570.56;5094427;28;20040;-80
2022/08/02 10:04:31;;;;;;;3.55;2.60;;;;;;;30.77;40.29;101575.22;5094733;28;20460;-80
2022/08/02 10:07:18;;;;;;;5.00;2.35;;;;;;;30.80;40.42;101569.22;5094649;28;20063;-79
2022/08/02 10:09:47;;;;;;;5.28;2.25;;;;;;;30.87;40.54;101559.75;5094138;28;20036;-79
2022/08/02 10:12:14;;;;;;;3.15;2.00;;;;;;;30.97;40.09;101573.13;5092878;28;20560;-78
2022/08/02 10:14:43;;;;;;;5.95;2.22;;;;;;;31.07;40.10;101562.38;5092803;28;20131;-79
2022/08/02 10:17:10;;;;;;;4.32;2.10;;;;;;;31.15;39.57;101567.66;5094165;28;20051;-78
2022/08/02 10:19:37;;;;;;;2.53;1.83;;;;;;;31.12;38.95;101570.00;5093289;28;20409;-78
2022/08/02 10:22:24;;;;;;;2.33;1.35;;;;;;;31.10;39.14;101561.91;5093915;28;20413;-79
2022/08/02 10:24:53;;;;;;;1.92;1.63;;;;;;;31.11;39.01;101559.97;5092884;28;20118;-80
2022/08/02 10:27:20;;;;;;;2.63;1.70;;;;;;;31.21;38.96;101560.34;5094029;28;20127;-79
2022/08/02 10:29:49;;;;;;;3.65;1.65;;;;;;;31.36;39.27;101557.25;5093607;28;20052;-79
2022/08/02 10:32:36;;;;;;;2.28;1.67;;;;;;;31.51;38.60;101558.56;5093232;28;20127;-80
2022/08/02 10:35:10;;;;;;;2.90;1.50;;;;;;;31.64;37.90;101559.50;5092168;28;20497;-79
2022/08/02 10:37:54;;;;;;;4.50;1.38;;;;;;;31.66;37.52;101560.13;5093859;28;20044;-78
2022/08/02 10:40:27;;;;;;;3.08;1.55;;;;;;;31.65;37.30;101550.94;5092081;28;20055;-78
2022/08/02 10:43:00;;;;;;;2.58;1.30;;;;;;;31.70;37.62;101553.91;5092970;28;20032;-78
2022/08/02 10:45:27;;;;;;;4.10;1.23;;;;;;;31.81;37.50;101555.06;5093442;28;20067;-77
2022/08/02 10:48:13;;;;;;;4.15;1.30;;;;;;;31.93;36.13;101559.59;5092187;28;20047;-75
2022/08/02 10:50:46;;;;;;;4.25;1.20;;;;;;;32.04;35.71;101560.78;5092034;28;20086;-77
2022/08/02 10:53:33;;;;;;;1.50;1.00;;;;;;;32.10;34.87;101554.28;5091976;28;20044;-75
2022/08/02 10:56:05;;;;;;;2.78;1.20;;;;;;;32.16;34.95;101553.34;5093091;28;20040;-76
2022/08/02 10:58:34;;;;;;;1.50;1.20;;;;;;;32.26;34.91;101557.53;5091630;28;20131;-76
2022/08/02 11:01:29;;;;;;;2.28;1.10;;;;;;;32.39;34.20;101557.34;5091307;28;20383;-77
2022/08/02 11:04:06;;;;;;;2.45;0.95;;;;;;;32.47;34.19;101543.09;5071147;28;20049;-77
2022/08/02 11:07:09;;;;;;;1.65;1.13;;;;;;;32.50;33.91;101545.41;5063999;28;20110;-76
2022/08/02 11:09:37;;;;;;;1.73;1.10;;;;;;;32.62;33.42;101542.66;5091015;28;20046;-75
2022/08/02 11:12:12;;;;;;;2.85;1.10;;;;;;;32.59;32.44;101545.91;5090819;28;20044;-75
2022/08/02 11:14:42;;;;;;;2.45;1.02;;;;;;;32.48;32.70;101547.56;5074347;28;20077;-75
2022/08/02 11:17:11;;;;;;;1.88;1.00;;;;;;;32.45;32.21;101550.81;5090779;28;20040;-75
2022/08/02 11:20:07;;;;;;;1.52;1.00;;;;;;;32.50;32.57;101543.47;5090536;28;20035;-76
2022/08/02 11:22:34;;;;;;;2.00;1.00;;;;;;;32.59;32.23;101535.63;5078324;28;20395;-76
2022/08/02 11:25:21;;;;;;;2.28;0.85;;;;;;;32.67;31.57;101537.22;5093553;28;20083;-75
2022/08/02 11:27:52;;;;;;;1.67;0.70;;;;;;;32.76;31.10;101536.66;5071710;28;20068;-76
2022/08/02 11:30:20;;;;;;;1.88;0.85;;;;;;;32.84;30.77;101533.56;5092327;28;20504;-76
2022/08/02 11:33:00;;;;;;;1.88;1.00;;;;;;;32.91;30.50;101540.94;5075687;28;20043;-77
2022/08/02 11:35:34;;;;;;;1.60;1.02;;;;;;;32.97;30.63;101543.63;5092831;28;20048;-77
2022/08/02 11:38:18;;;;;;;3.25;1.05;;;;;;;33.01;30.65;101543.97;5092606;28;20047;-77
2022/08/02 11:40:47;;;;;;;1.98;1.00;;;;;;;33.14;31.03;101543.75;5071911;28;20457;-77
2022/08/02 11:43:25;;;;;;;2.45;1.00;;;;;;;33.14;30.32;101538.19;5072661;28;20123;-76
2022/08/02 11:45:54;;;;;;;2.20;1.10;;;;;;;33.07;30.43;101541.09;5081127;28;20040;-77
2022/08/02 11:48:35;;;;;;;2.85;0.90;;;;;;;33.04;29.85;101537.94;5093319;28;20043;-76
2022/08/02 11:51:06;;;;;;;1.23;0.90;;;;;;;33.03;29.56;101541.81;5092784;27;20052;-78
2022/08/02 11:53:49;;;;;;;3.25;0.85;;;;;;;33.03;29.90;101542.66;5092875;28;20044;-77